createdAt,value
2018-10-11T00:01:52.622Z,48.53
2018-10-11T00:04:23.795Z,56.53
2018-10-11T00:06:55.287Z,54.50
2018-10-11T00:09:27.411Z,51.30
2018-10-11T00:11:58.835Z,55.50
2018-10-11T00:14:29.914Z,56.80
2018-10-11T00:17:01.176Z,62.27
2018-10-11T00:19:32.460Z,55.00
2018-10-11T00:22:04.589Z,55.77
2018-10-11T00:24:36.844Z,52.73
2018-10-11T00:27:08.435Z,54.83
2018-10-11T00:29:39.539Z,52.93
2018-10-11T00:32:11.297Z,45.93
2018-10-11T00:34:42.447Z,46.23
2018-10-11T00:37:13.583Z,46.07
2018-10-11T00:39:44.981Z,45.93
2018-10-11T00:42:16.367Z,54.97
2018-10-11T00:44:47.499Z,70.13
2018-10-11T00:47:19.047Z,37.97
2018-10-11T00:49:50.319Z,60.10
2018-10-11T00:52:22.127Z,47.13
2018-10-11T00:54:53.326Z,45.67
2018-10-11T00:57:25.063Z,67.07
2018-10-11T00:59:56.190Z,86.60
2018-10-11T01:02:28.527Z,59.27
2018-10-11T01:04:59.970Z,74.77
2018-10-11T01:07:31.595Z,80.47
2018-10-11T01:10:07.421Z,59.80
2018-10-11T01:12:38.998Z,76.27
2018-10-11T01:15:10.187Z,60.90
2018-10-11T01:17:41.966Z,59.37
2018-10-11T01:20:13.137Z,57.47
2018-10-11T01:22:48.179Z,71.67
2018-10-11T01:25:19.489Z,63.93
2018-10-11T01:27:51.047Z,54.80
2018-10-11T01:30:22.418Z,51.53
2018-10-11T01:32:54.567Z,65.00
2018-10-11T01:35:26.223Z,65.20
2018-10-11T01:37:57.828Z,47.13
2018-10-11T01:40:29.164Z,50.20
2018-10-11T01:43:07.143Z,74.13
2018-10-11T01:45:38.581Z,45.87
2018-10-11T01:48:09.999Z,42.33
2018-10-11T01:50:41.155Z,61.57
2018-10-11T01:53:12.788Z,49.47
2018-10-11T01:55:43.983Z,39.30
2018-10-11T01:58:15.360Z,48.33
2018-10-11T02:00:46.614Z,52.87
2018-10-11T02:03:17.975Z,55.57
2018-10-11T02:05:49.228Z,49.93
2018-10-11T02:08:21.144Z,46.27
2018-10-11T02:11:05.507Z,46.77
2018-10-11T02:13:36.971Z,58.33
2018-10-11T02:16:08.488Z,69.17
2018-10-11T02:18:40.960Z,44.60
2018-10-11T02:21:12.143Z,59.63
2018-10-11T02:23:43.748Z,52.30
2018-10-11T02:26:15.659Z,53.30
2018-10-11T02:28:47.647Z,52.57
2018-10-11T02:31:18.885Z,64.67
2018-10-11T02:33:50.385Z,49.27
2018-10-11T02:36:21.427Z,49.07
2018-10-11T02:38:53.057Z,56.67
2018-10-11T02:41:24.695Z,56.20
2018-10-11T02:43:56.612Z,64.90
2018-10-11T02:46:27.759Z,62.97
2018-10-11T02:48:59.922Z,58.10
2018-10-11T02:51:31.293Z,62.30
2018-10-11T02:54:04.808Z,67.40
2018-10-11T02:56:37.481Z,57.77
2018-10-11T02:59:19.906Z,57.63
2018-10-11T03:01:51.625Z,64.17
2018-10-11T03:04:23.423Z,43.17
2018-10-11T03:06:55.331Z,70.40
2018-10-11T03:09:27.478Z,65.73
2018-10-11T03:12:00.319Z,65.20
2018-10-11T03:14:31.800Z,58.10
2018-10-11T03:17:03.211Z,39.53
2018-10-11T03:19:34.867Z,74.23
2018-10-11T03:22:06.046Z,45.40
2018-10-11T03:24:38.196Z,58.27
2018-10-11T03:27:09.527Z,52.10
2018-10-11T03:29:41.048Z,68.87
2018-10-11T03:32:12.160Z,74.43
2018-10-11T03:34:44.205Z,59.83
2018-10-11T03:37:15.533Z,59.97
2018-10-11T03:39:47.213Z,59.07
2018-10-11T03:42:18.607Z,68.57
2018-10-11T03:44:49.961Z,65.00
2018-10-11T03:47:21.261Z,59.37
2018-10-11T03:49:52.988Z,73.80
2018-10-11T03:52:24.682Z,59.17
2018-10-11T03:54:56.181Z,58.67
2018-10-11T03:57:27.659Z,63.17
2018-10-11T03:59:59.427Z,53.43
2018-10-11T04:02:30.639Z,59.23
2018-10-11T04:05:05.015Z,63.97
2018-10-11T04:07:36.381Z,68.43
2018-10-11T04:10:08.045Z,56.90
2018-10-11T04:12:40.520Z,71.33
2018-10-11T04:15:11.992Z,69.83
2018-10-11T04:17:43.415Z,72.93
2018-10-11T04:20:15.199Z,74.47
2018-10-11T04:22:46.272Z,64.07
2018-10-11T04:25:18.015Z,66.50
2018-10-11T04:27:49.212Z,70.50
2018-10-11T04:30:20.792Z,50.97
2018-10-11T04:32:52.268Z,54.73
2018-10-11T04:35:23.664Z,59.53
2018-10-11T04:37:55.013Z,62.47
2018-10-11T04:40:26.552Z,56.10
2018-10-11T04:42:58.120Z,54.53
2018-10-11T04:45:29.991Z,53.73
2018-10-11T04:48:01.235Z,50.80
2018-10-11T04:50:32.912Z,68.77
2018-10-11T04:53:04.569Z,51.30
2018-10-11T04:55:36.018Z,40.00
2018-10-11T04:58:07.455Z,49.53
2018-10-11T05:00:39.146Z,35.50
2018-10-11T05:03:11.935Z,58.40
2018-10-11T05:05:44.219Z,57.20
2018-10-11T05:08:15.618Z,41.13
2018-10-11T05:10:47.100Z,59.00
2018-10-11T05:13:19.775Z,44.47
2018-10-11T05:15:51.227Z,45.37
2018-10-11T05:18:23.311Z,43.70
2018-10-11T05:20:55.076Z,49.33
2018-10-11T05:23:26.527Z,48.80
2018-10-11T05:25:58.082Z,51.83
2018-10-11T05:28:29.328Z,55.80
2018-10-11T05:31:00.927Z,42.00
2018-10-11T05:33:32.286Z,43.47
2018-10-11T05:36:04.712Z,43.93
2018-10-11T05:38:35.998Z,45.57
2018-10-11T05:41:08.372Z,42.47
2018-10-11T05:43:40.203Z,45.63
2018-10-11T05:46:17.728Z,49.77
2018-10-11T05:48:49.627Z,45.33
2018-10-11T05:51:22.412Z,44.60
2018-10-11T05:53:55.848Z,53.63
2018-10-11T05:56:28.928Z,42.97
2018-10-11T05:59:01.188Z,40.53
2018-10-11T06:01:33.524Z,42.67
2018-10-11T06:04:05.906Z,61.47
2018-10-11T06:06:37.467Z,51.17
2018-10-11T06:09:10.182Z,61.57
2018-10-11T06:11:42.592Z,50.57
2018-10-11T06:14:16.388Z,52.33
2018-10-11T06:16:47.772Z,46.20
2018-10-11T06:19:19.068Z,46.97
2018-10-11T06:21:50.352Z,51.47
2018-10-11T06:24:21.635Z,44.93
2018-10-11T06:26:52.963Z,50.67
2018-10-11T06:29:24.406Z,45.03
2018-10-11T06:31:56.270Z,61.50
2018-10-11T06:34:27.988Z,52.63
2018-10-11T06:37:01.189Z,51.27
2018-10-11T06:39:32.645Z,54.40
2018-10-11T06:42:03.909Z,52.93
2018-10-11T06:44:35.993Z,55.23
2018-10-11T06:47:07.880Z,60.70
2018-10-11T06:49:39.376Z,52.97
2018-10-11T06:52:10.891Z,61.83
2018-10-11T06:54:42.310Z,44.80
2018-10-11T06:57:13.495Z,58.67
2018-10-11T06:59:44.600Z,57.77
2018-10-11T07:02:15.827Z,49.00
2018-10-11T07:04:46.764Z,50.93
2018-10-11T07:07:18.043Z,60.90
2018-10-11T07:09:49.035Z,52.20
2018-10-11T07:12:20.143Z,59.03
2018-10-11T07:14:51.885Z,60.73
2018-10-11T07:17:22.887Z,61.90
2018-10-11T07:19:53.962Z,56.37
2018-10-11T07:22:25.627Z,54.97
2018-10-11T07:24:56.656Z,50.40
2018-10-11T07:27:27.952Z,49.17
2018-10-11T07:29:59.191Z,48.00
2018-10-11T07:32:30.596Z,57.73
2018-10-11T07:35:02.321Z,56.57
2018-10-11T07:37:33.763Z,53.97
2018-10-11T07:40:04.871Z,52.60
2018-10-11T07:42:36.159Z,61.13
2018-10-11T07:45:07.304Z,54.27
2018-10-11T07:47:38.815Z,56.83
2018-10-11T07:50:09.955Z,68.83
2018-10-11T07:52:41.320Z,48.20
2018-10-11T07:55:12.315Z,57.73
2018-10-11T07:57:43.697Z,54.73
2018-10-11T08:00:15.153Z,47.57
2018-10-11T08:02:46.516Z,47.93
2018-10-11T08:05:17.788Z,54.57
2018-10-11T08:07:49.134Z,53.43
2018-10-11T08:10:20.471Z,55.53
2018-10-11T08:12:52.174Z,45.87
2018-10-11T08:15:24.789Z,55.27
2018-10-11T08:17:56.628Z,51.18
2018-10-11T08:20:27.679Z,57.60
2018-10-11T08:22:59.541Z,43.90
2018-10-11T08:25:30.963Z,45.93
2018-10-11T08:28:02.643Z,44.87
2018-10-11T08:30:33.999Z,49.70
2018-10-11T08:33:05.772Z,47.43
2018-10-11T08:35:37.027Z,48.10
2018-10-11T08:38:08.458Z,45.23
2018-10-11T08:40:39.707Z,48.70
2018-10-11T08:43:11.159Z,42.47
2018-10-11T08:45:42.257Z,36.30
2018-10-11T08:48:13.505Z,46.10
2018-10-11T08:50:44.941Z,57.30
2018-10-11T08:53:16.552Z,52.40
2018-10-11T08:55:48.829Z,48.47
2018-10-11T08:58:20.259Z,40.37
2018-10-11T09:00:52.995Z,56.67
2018-10-11T09:03:24.718Z,38.47
2018-10-11T09:05:56.072Z,43.80
2018-10-11T09:08:28.088Z,41.70
2018-10-11T09:10:59.690Z,51.03
2018-10-11T09:13:31.850Z,43.20
2018-10-11T09:16:05.499Z,39.67
2018-10-11T09:18:36.997Z,36.83
2018-10-11T09:21:08.389Z,38.97
2018-10-11T09:23:40.018Z,54.03
2018-10-11T09:26:11.696Z,48.13
2018-10-11T09:28:42.930Z,45.63
2018-10-11T09:31:13.989Z,33.30
2018-10-11T09:33:45.141Z,47.90
2018-10-11T09:36:16.423Z,29.60
2018-10-11T09:38:48.015Z,41.40
2018-10-11T09:41:19.389Z,47.73
2018-10-11T09:43:51.108Z,37.97
2018-10-11T09:46:22.499Z,59.60
2018-10-11T09:48:54.096Z,36.60
2018-10-11T09:51:25.535Z,43.50
2018-10-11T09:53:56.836Z,36.57
2018-10-11T09:56:40.093Z,40.00
2018-10-11T09:59:11.419Z,27.63
2018-10-11T10:01:47.183Z,51.50
2018-10-11T10:04:18.816Z,49.13
2018-10-11T10:06:50.263Z,41.30
2018-10-11T10:09:21.727Z,33.90
2018-10-11T10:11:52.931Z,32.07
2018-10-11T10:14:24.443Z,58.27
2018-10-11T10:16:56.787Z,44.47
2018-10-11T10:19:28.883Z,36.50
2018-10-11T10:22:00.228Z,40.50
2018-10-11T10:24:32.247Z,34.83
2018-10-11T10:27:03.909Z,23.40
2018-10-11T10:29:35.936Z,41.80
2018-10-11T10:32:08.256Z,65.33
2018-10-11T10:34:39.876Z,56.83
2018-10-11T10:37:11.095Z,63.57
2018-10-11T10:39:43.028Z,71.70
2018-10-11T10:42:14.184Z,68.93
2018-10-11T10:44:45.906Z,46.07
2018-10-11T10:47:16.807Z,64.20
2018-10-11T10:49:48.011Z,51.43
2018-10-11T10:52:18.936Z,65.67
2018-10-11T10:54:50.013Z,62.33
2018-10-11T10:57:20.951Z,63.13
2018-10-11T10:59:52.232Z,54.87
2018-10-11T11:02:23.163Z,62.23
2018-10-11T11:04:54.390Z,62.23
2018-10-11T11:07:25.447Z,58.27
2018-10-11T11:09:57.226Z,65.13
2018-10-11T11:12:28.318Z,63.37
2018-10-11T11:15:00.023Z,57.70
2018-10-11T11:17:32.875Z,62.93
2018-10-11T11:20:04.339Z,60.67
2018-10-11T11:22:35.698Z,60.53
2018-10-11T11:25:07.900Z,75.70
2018-10-11T11:27:39.607Z,41.40
2018-10-11T11:30:11.584Z,60.37
2018-10-11T11:32:43.141Z,76.20
2018-10-11T11:35:15.007Z,62.33
2018-10-11T11:37:46.740Z,49.60
2018-10-11T11:40:18.201Z,57.43
2018-10-11T11:42:49.253Z,65.83
2018-10-11T11:45:21.583Z,63.67
2018-10-11T11:47:52.970Z,61.87
2018-10-11T11:50:24.453Z,58.13
2018-10-11T11:52:56.935Z,45.33
2018-10-11T11:55:28.600Z,69.13
2018-10-11T11:58:00.001Z,49.77
2018-10-11T12:00:31.632Z,87.60
2018-10-11T12:03:02.970Z,64.07
2018-10-11T12:05:34.663Z,42.73
2018-10-11T12:08:06.868Z,78.23
2018-10-11T12:10:38.758Z,53.23
2018-10-11T12:13:12.215Z,45.20
2018-10-11T12:15:45.051Z,50.47
2018-10-11T12:18:17.311Z,59.83
2018-10-11T12:20:49.001Z,59.27
2018-10-11T12:23:20.199Z,54.40
2018-10-11T12:25:51.762Z,52.83
2018-10-11T12:28:23.410Z,49.43
2018-10-11T12:30:54.937Z,52.87
2018-10-11T12:33:26.343Z,47.27
2018-10-11T12:35:58.301Z,50.37
2018-10-11T12:38:29.561Z,52.37
2018-10-11T12:41:01.676Z,48.60
2018-10-11T12:43:32.826Z,47.13
2018-10-11T12:46:04.448Z,54.80
2018-10-11T12:48:35.712Z,52.00
2018-10-11T12:51:07.359Z,42.93
2018-10-11T12:53:42.243Z,46.27
2018-10-11T12:56:11.131Z,51.07
2018-10-11T12:58:42.497Z,51.27
2018-10-11T13:01:17.271Z,46.30
2018-10-11T13:03:45.854Z,48.90
2018-10-11T13:06:17.396Z,63.60
2018-10-11T13:08:48.672Z,45.23
2018-10-11T13:11:20.386Z,51.67
2018-10-11T13:13:53.009Z,48.30
2018-10-11T13:16:23.291Z,36.20
2018-10-11T13:18:56.330Z,48.17
2018-10-11T13:21:28.295Z,50.33
2018-10-11T13:23:59.722Z,48.53
2018-10-11T13:26:31.443Z,54.43
2018-10-11T13:29:03.739Z,46.47
2018-10-11T13:31:35.507Z,46.27
2018-10-11T13:34:07.105Z,31.70
2018-10-11T13:36:38.811Z,40.77
2018-10-11T13:39:11.071Z,42.10
2018-10-11T13:41:42.828Z,47.70
2018-10-11T13:44:14.162Z,48.17
2018-10-11T13:46:45.624Z,51.63
2018-10-11T13:49:19.061Z,41.47
2018-10-11T13:51:50.627Z,50.87
2018-10-11T13:54:21.739Z,48.37
2018-10-11T13:56:57.008Z,40.70
2018-10-11T13:59:24.958Z,53.00
2018-10-11T14:01:56.618Z,57.60
2018-10-11T14:04:27.997Z,51.07
2018-10-11T14:06:59.602Z,59.20
2018-10-11T14:09:30.834Z,40.50
2018-10-11T14:12:02.283Z,47.77
2018-10-11T14:14:33.617Z,51.07
2018-10-11T14:17:05.195Z,38.03
2018-10-11T14:19:37.919Z,55.03
2018-10-11T14:22:09.538Z,47.10
2018-10-11T14:24:41.348Z,49.10
2018-10-11T14:27:13.031Z,57.90
2018-10-11T14:29:44.294Z,57.77
2018-10-11T14:32:16.079Z,42.10
2018-10-11T14:34:47.122Z,50.87
2018-10-11T14:37:18.865Z,47.37
2018-10-11T14:39:50.677Z,44.87
2018-10-11T14:42:22.312Z,52.33
2018-10-11T14:44:53.667Z,52.20
2018-10-11T14:47:25.539Z,59.53
2018-10-11T14:49:56.926Z,42.37
2018-10-11T14:52:28.432Z,48.47
2018-10-11T14:55:00.034Z,38.20
2018-10-11T14:57:31.229Z,56.57
2018-10-11T15:00:05.073Z,44.43
2018-10-11T15:02:37.460Z,41.87
2018-10-11T15:05:10.889Z,51.17
2018-10-11T15:07:42.537Z,49.37
2018-10-11T15:10:13.898Z,57.87
2018-10-11T15:12:45.432Z,50.60
2018-10-11T15:15:16.595Z,42.20
2018-10-11T15:17:48.061Z,56.77
2018-10-11T15:20:20.219Z,54.00
2018-10-11T15:22:52.040Z,43.60
2018-10-11T15:25:23.511Z,58.03
2018-10-11T15:27:55.310Z,40.83
2018-10-11T15:30:26.542Z,61.40
2018-10-11T15:33:02.187Z,48.70
2018-10-11T15:35:33.583Z,60.90
2018-10-11T15:38:05.450Z,54.37
2018-10-11T15:40:36.609Z,47.87
2018-10-11T15:43:07.986Z,59.57
2018-10-11T15:45:39.166Z,55.10
2018-10-11T15:48:10.867Z,71.57
2018-10-11T15:50:41.918Z,47.40
2018-10-11T15:53:13.407Z,69.50
2018-10-11T15:55:44.627Z,65.13
2018-10-11T15:58:16.229Z,56.20
2018-10-11T16:00:47.446Z,53.37
2018-10-11T16:03:19.052Z,57.07
2018-10-11T16:05:50.612Z,59.00
2018-10-11T16:08:22.223Z,56.03
2018-10-11T16:10:53.484Z,52.50
2018-10-11T16:13:25.356Z,65.00
2018-10-11T16:15:56.598Z,59.90
2018-10-11T16:18:28.102Z,52.90
2018-10-11T16:21:01.048Z,64.63
2018-10-11T16:23:33.251Z,65.00
2018-10-11T16:26:05.736Z,58.20
2018-10-11T16:28:37.555Z,56.83
2018-10-11T16:31:08.807Z,46.63
2018-10-11T16:33:41.355Z,61.30
2018-10-11T16:36:12.675Z,49.90
2018-10-11T16:38:44.155Z,77.27
2018-10-11T16:41:15.435Z,61.57
2018-10-11T16:43:46.800Z,54.90
2018-10-11T16:46:18.045Z,49.37
2018-10-11T16:48:50.400Z,51.50
2018-10-11T16:51:21.944Z,63.03
2018-10-11T16:53:53.375Z,55.50
2018-10-11T16:56:24.560Z,43.63
2018-10-11T16:58:57.652Z,56.63
2018-10-11T17:01:28.833Z,57.27
2018-10-11T17:04:00.221Z,47.77
2018-10-11T17:06:31.783Z,59.03
2018-10-11T17:09:03.326Z,52.37
2018-10-11T17:11:34.609Z,58.20
2018-10-11T17:14:06.402Z,58.93
2018-10-11T17:16:37.400Z,50.13
2018-10-11T17:19:09.172Z,54.57
2018-10-11T17:21:41.778Z,51.07
2018-10-11T17:24:13.714Z,52.17
2018-10-11T17:26:44.948Z,54.57
2018-10-11T17:29:16.284Z,60.27
2018-10-11T17:31:47.322Z,53.17
2018-10-11T17:34:18.451Z,42.53
2018-10-11T17:36:49.199Z,51.07
2018-10-11T17:39:20.479Z,54.30
2018-10-11T17:41:51.507Z,47.03
2018-10-11T17:44:22.692Z,39.20
2018-10-11T17:46:53.670Z,50.47
2018-10-11T17:49:24.987Z,43.13
2018-10-11T17:51:57.919Z,31.97
2018-10-11T17:54:29.230Z,43.27
2018-10-11T17:57:00.196Z,45.77
2018-10-11T17:59:32.087Z,35.83
2018-10-11T18:02:04.119Z,42.00
2018-10-11T18:04:35.871Z,27.40
2018-10-11T18:07:07.114Z,35.10
2018-10-11T18:09:39.043Z,32.17
2018-10-11T18:12:10.433Z,37.30
2018-10-11T18:14:41.803Z,20.80
2018-10-11T18:17:13.186Z,23.33
2018-10-11T18:19:44.772Z,18.70
2018-10-11T18:22:17.108Z,21.60
2018-10-11T18:24:49.068Z,17.57
2018-10-11T18:27:20.339Z,12.03
2018-10-11T18:29:51.752Z,17.47
2018-10-11T18:32:23.207Z,19.93
2018-10-11T18:34:54.592Z,20.87
2018-10-11T18:37:25.851Z,15.90
2018-10-11T18:39:57.266Z,24.17
2018-10-11T18:42:28.564Z,20.20
2018-10-11T18:45:00.037Z,20.57
2018-10-11T18:47:31.931Z,19.13
2018-10-11T18:50:04.262Z,26.03
2018-10-11T18:52:35.475Z,31.87
2018-10-11T18:55:08.326Z,24.33
2018-10-11T18:57:39.756Z,22.43
2018-10-11T19:00:11.291Z,25.07
2018-10-11T19:02:42.580Z,19.97
2018-10-11T19:05:14.152Z,18.17
2018-10-11T19:07:45.458Z,22.93
2018-10-11T19:10:16.621Z,25.73
2018-10-11T19:12:47.483Z,21.97
2018-10-11T19:15:18.750Z,29.43
2018-10-11T19:17:51.287Z,18.80
2018-10-11T19:20:22.678Z,19.47
2018-10-11T19:22:54.603Z,27.37
2018-10-11T19:25:25.864Z,26.07
2018-10-11T19:27:56.772Z,21.00
2018-10-11T19:30:28.102Z,20.70
2018-10-11T19:32:59.479Z,26.73
2018-10-11T19:35:31.366Z,28.23
2018-10-11T19:38:02.858Z,23.63
2018-10-11T19:40:34.539Z,21.90
2018-10-11T19:43:08.632Z,23.73
2018-10-11T19:45:40.531Z,26.87
2018-10-11T19:48:12.128Z,20.10
2018-10-11T19:50:44.020Z,18.27
2018-10-11T19:53:15.330Z,20.47
2018-10-11T19:55:47.018Z,18.73
2018-10-11T19:58:18.293Z,28.17
2018-10-11T20:00:50.071Z,21.17
2018-10-11T20:03:21.787Z,31.90
2018-10-11T20:05:53.323Z,26.90
2018-10-11T20:08:24.658Z,21.37
2018-10-11T20:10:56.219Z,24.70
2018-10-11T20:13:27.573Z,18.10
2018-10-11T20:15:59.187Z,17.77
2018-10-11T20:18:30.352Z,30.97
2018-10-11T20:21:04.039Z,23.60
2018-10-11T20:23:36.987Z,33.63
2018-10-11T20:26:08.969Z,15.80
2018-10-11T20:28:40.566Z,28.33
2018-10-11T20:31:12.647Z,21.33
2018-10-11T20:33:44.067Z,28.90
2018-10-11T20:36:15.402Z,26.10
2018-10-11T20:38:46.719Z,25.13
2018-10-11T20:41:18.146Z,33.20
2018-10-11T20:43:49.589Z,30.13
2018-10-11T20:46:21.385Z,27.30
2018-10-11T20:48:52.474Z,26.70
2018-10-11T20:51:24.107Z,25.10
2018-10-11T20:53:55.170Z,32.80
2018-10-11T20:56:26.959Z,29.47
2018-10-11T20:58:58.139Z,24.13
2018-10-11T21:01:29.731Z,31.27
2018-10-11T21:04:00.751Z,36.60
2018-10-11T21:06:32.292Z,28.43
2018-10-11T21:09:05.798Z,31.73
2018-10-11T21:11:37.071Z,22.13
2018-10-11T21:14:09.200Z,39.50
2018-10-11T21:16:40.719Z,18.43
2018-10-11T21:19:12.306Z,24.77
2018-10-11T21:21:44.082Z,32.07
2018-10-11T21:24:16.628Z,21.07
2018-10-11T21:26:47.899Z,32.90
2018-10-11T21:29:19.132Z,20.40
2018-10-11T21:31:50.599Z,19.10
2018-10-11T21:34:22.169Z,24.90
2018-10-11T21:36:54.102Z,21.03
2018-10-11T21:39:25.835Z,27.30
2018-10-11T21:41:57.370Z,21.57
2018-10-11T21:44:28.835Z,25.93
2018-10-11T21:47:00.908Z,25.77
2018-10-11T21:49:32.065Z,19.67
2018-10-11T21:52:03.767Z,16.83
2018-10-11T21:54:34.845Z,18.27
2018-10-11T21:57:06.652Z,12.93
2018-10-11T21:59:37.831Z,19.53
2018-10-11T22:02:09.646Z,21.53
2018-10-11T22:04:41.291Z,28.43
2018-10-11T22:07:13.031Z,20.60
2018-10-11T22:09:44.409Z,27.53
2018-10-11T22:12:16.291Z,11.93
2018-10-11T22:14:47.516Z,23.53
2018-10-11T22:17:19.160Z,20.67
2018-10-11T22:19:50.698Z,26.87
2018-10-11T22:22:21.987Z,20.10
2018-10-11T22:24:55.345Z,18.23
2018-10-11T22:27:26.782Z,28.53
2018-10-11T22:29:58.074Z,28.40
2018-10-11T22:32:29.419Z,17.93
2018-10-11T22:35:00.743Z,17.00
2018-10-11T22:37:32.214Z,20.20
2018-10-11T22:40:03.544Z,25.17
2018-10-11T22:42:35.151Z,19.87
2018-10-11T22:45:06.550Z,28.87
2018-10-11T22:47:38.024Z,25.63
2018-10-11T22:50:09.275Z,29.37
2018-10-11T22:52:41.102Z,26.90
2018-10-11T22:55:12.431Z,30.53
2018-10-11T22:57:43.962Z,26.70
2018-10-11T23:00:15.523Z,23.50
2018-10-11T23:02:46.920Z,25.80
2018-10-11T23:05:18.420Z,28.27
2018-10-11T23:07:50.137Z,36.07
2018-10-11T23:10:21.536Z,18.07
2018-10-11T23:12:53.226Z,36.90
2018-10-11T23:15:24.451Z,36.30
2018-10-11T23:17:56.102Z,16.60
2018-10-11T23:20:27.218Z,23.07
2018-10-11T23:22:58.775Z,22.20
2018-10-11T23:25:31.036Z,22.87
2018-10-11T23:28:03.219Z,28.03
2018-10-11T23:30:34.539Z,23.93
2018-10-11T23:33:07.120Z,26.57
2018-10-11T23:35:38.282Z,21.73
2018-10-11T23:38:09.976Z,25.10
2018-10-11T23:40:41.410Z,18.93
2018-10-11T23:43:13.622Z,25.83
2018-10-11T23:45:44.919Z,19.43
2018-10-11T23:48:16.756Z,30.20
2018-10-11T23:50:47.956Z,27.17
2018-10-11T23:53:19.635Z,30.37
2018-10-11T23:55:50.803Z,21.37
2018-10-11T23:58:22.216Z,24.30
